sensor_id;sensor_type;location;lat;lon;timestamp;temperature;humidity
66835;HTU21D;53743;51.100;5.874;2023-05-29T00:00:18;16.85;64.56
66835;HTU21D;53743;51.100;5.874;2023-05-29T00:01:21;16.86;64.82
66835;HTU21D;53743;51.100;5.874;2023-05-29T00:02:24;16.81;66.25
66835;HTU21D;53743;51.100;5.874;2023-05-29T00:03:25;16.80;64.71
66835;HTU21D;53743;51.100;5.874;2023-05-29T00:04:27;16.78;64.69
66835;HTU21D;53743;51.100;5.874;2023-05-29T00:05:28;16.78;64.92
66835;HTU21D;53743;51.100;5.874;2023-05-29T00:06:30;16.77;65.80
66835;HTU21D;53743;51.100;5.874;2023-05-29T00:07:31;16.72;66.66
66835;HTU21D;53743;51.100;5.874;2023-05-29T00:08:34;16.66;66.01
66835;HTU21D;53743;51.100;5.874;2023-05-29T00:09:34;16.65;66.53
66835;HTU21D;53743;51.100;5.874;2023-05-29T00:10:36;16.63;66.46
66835;HTU21D;53743;51.100;5.874;2023-05-29T00:11:39;16.61;65.79
66835;HTU21D;53743;51.100;5.874;2023-05-29T00:12:41;16.59;65.75
66835;HTU21D;53743;51.100;5.874;2023-05-29T00:13:41;16.57;67.19
66835;HTU21D;53743;51.100;5.874;2023-05-29T00:14:43;16.52;66.37
66835;HTU21D;53743;51.100;5.874;2023-05-29T00:15:44;16.50;66.05
66835;HTU21D;53743;51.100;5.874;2023-05-29T00:16:48;16.52;66.30
66835;HTU21D;53743;51.100;5.874;2023-05-29T00:17:50;16.52;66.52
66835;HTU21D;53743;51.100;5.874;2023-05-29T00:18:53;16.51;66.53
66835;HTU21D;53743;51.100;5.874;2023-05-29T00:19:54;16.48;66.61
66835;HTU21D;53743;51.100;5.874;2023-05-29T00:20:56;16.47;66.68
66835;HTU21D;53743;51.100;5.874;2023-05-29T00:21:57;16.48;66.56
66835;HTU21D;53743;51.100;5.874;2023-05-29T00:22:58;16.46;67.01
66835;HTU21D;53743;51.100;5.874;2023-05-29T00:23:59;16.42;67.10
66835;HTU21D;53743;51.100;5.874;2023-05-29T00:25:01;16.43;66.96
66835;HTU21D;53743;51.100;5.874;2023-05-29T00:26:03;16.36;69.22
66835;HTU21D;53743;51.100;5.874;2023-05-29T00:27:07;16.32;67.65
66835;HTU21D;53743;51.100;5.874;2023-05-29T00:28:09;16.32;67.13
66835;HTU21D;53743;51.100;5.874;2023-05-29T00:29:12;16.33;67.14
66835;HTU21D;53743;51.100;5.874;2023-05-29T00:30:14;16.33;67.53
66835;HTU21D;53743;51.100;5.874;2023-05-29T00:31:16;16.32;67.43
66835;HTU21D;53743;51.100;5.874;2023-05-29T00:32:17;16.32;67.33
66835;HTU21D;53743;51.100;5.874;2023-05-29T00:33:19;16.29;67.62
66835;HTU21D;53743;51.100;5.874;2023-05-29T00:34:22;16.26;67.64
66835;HTU21D;53743;51.100;5.874;2023-05-29T00:35:26;16.26;67.88
66835;HTU21D;53743;51.100;5.874;2023-05-29T00:36:27;16.22;67.83
66835;HTU21D;53743;51.100;5.874;2023-05-29T00:37:30;16.16;69.08
66835;HTU21D;53743;51.100;5.874;2023-05-29T00:38:31;16.15;68.17
66835;HTU21D;53743;51.100;5.874;2023-05-29T00:39:32;16.16;68.75
66835;HTU21D;53743;51.100;5.874;2023-05-29T00:40:33;16.14;68.39
66835;HTU21D;53743;51.100;5.874;2023-05-29T00:41:35;16.14;68.37
66835;HTU21D;53743;51.100;5.874;2023-05-29T00:42:38;16.15;69.03
66835;HTU21D;53743;51.100;5.874;2023-05-29T00:43:40;16.15;69.08
66835;HTU21D;53743;51.100;5.874;2023-05-29T00:44:41;16.07;69.23
66835;HTU21D;53743;51.100;5.874;2023-05-29T00:45:43;16.02;69.32
66835;HTU21D;53743;51.100;5.874;2023-05-29T00:46:45;15.96;70.42
66835;HTU21D;53743;51.100;5.874;2023-05-29T00:47:47;15.95;69.82
66835;HTU21D;53743;51.100;5.874;2023-05-29T00:48:49;15.98;69.68
66835;HTU21D;53743;51.100;5.874;2023-05-29T00:49:52;15.93;69.88
66835;HTU21D;53743;51.100;5.874;2023-05-29T00:50:54;15.89;70.10
66835;HTU21D;53743;51.100;5.874;2023-05-29T00:51:56;15.91;70.64
66835;HTU21D;53743;51.100;5.874;2023-05-29T00:52:59;15.88;70.33
66835;HTU21D;53743;51.100;5.874;2023-05-29T00:54:05;15.83;70.38
66835;HTU21D;53743;51.100;5.874;2023-05-29T00:55:08;15.86;70.77
66835;HTU21D;53743;51.100;5.874;2023-05-29T00:56:11;15.84;70.74
66835;HTU21D;53743;51.100;5.874;2023-05-29T00:57:14;15.81;71.34
66835;HTU21D;53743;51.100;5.874;2023-05-29T00:58:20;15.73;71.72
66835;HTU21D;53743;51.100;5.874;2023-05-29T00:59:22;15.72;71.32
66835;HTU21D;53743;51.100;5.874;2023-05-29T01:00:24;15.68;71.47
66835;HTU21D;53743;51.100;5.874;2023-05-29T01:01:26;15.71;72.13
66835;HTU21D;53743;51.100;5.874;2023-05-29T01:02:29;15.67;71.76
66835;HTU21D;53743;51.100;5.874;2023-05-29T01:03:31;15.66;72.35
66835;HTU21D;53743;51.100;5.874;2023-05-29T01:04:34;15.62;72.31
66835;HTU21D;53743;51.100;5.874;2023-05-29T01:05:35;15.62;72.43
66835;HTU21D;53743;51.100;5.874;2023-05-29T01:06:39;15.56;72.90
66835;HTU21D;53743;51.100;5.874;2023-05-29T01:07:41;15.53;74.04
66835;HTU21D;53743;51.100;5.874;2023-05-29T01:08:43;15.46;74.02
66835;HTU21D;53743;51.100;5.874;2023-05-29T01:11:05;15.41;74.15
66835;HTU21D;53743;51.100;5.874;2023-05-29T01:12:23;15.42;73.63
66835;HTU21D;53743;51.100;5.874;2023-05-29T01:13:39;15.44;74.33
66835;HTU21D;53743;51.100;5.874;2023-05-29T01:14:54;15.45;74.64
66835;HTU21D;53743;51.100;5.874;2023-05-29T01:16:13;15.41;74.62
66835;HTU21D;53743;51.100;5.874;2023-05-29T01:17:35;15.33;75.58
66835;HTU21D;53743;51.100;5.874;2023-05-29T01:18:51;15.29;75.76
66835;HTU21D;53743;51.100;5.874;2023-05-29T01:20:10;15.27;76.21
66835;HTU21D;53743;51.100;5.874;2023-05-29T01:21:27;15.26;75.05
66835;HTU21D;53743;51.100;5.874;2023-05-29T01:23:03;15.28;75.76
66835;HTU21D;53743;51.100;5.874;2023-05-29T01:24:22;15.18;75.69
66835;HTU21D;53743;51.100;5.874;2023-05-29T01:25:58;15.14;76.57
66835;HTU21D;53743;51.100;5.874;2023-05-29T01:27:17;15.13;75.96
66835;HTU21D;53743;51.100;5.874;2023-05-29T01:28:26;15.13;76.00
66835;HTU21D;53743;51.100;5.874;2023-05-29T01:29:34;15.11;76.52
66835;HTU21D;53743;51.100;5.874;2023-05-29T01:30:40;15.09;76.76
66835;HTU21D;53743;51.100;5.874;2023-05-29T01:31:44;15.06;77.03
66835;HTU21D;53743;51.100;5.874;2023-05-29T01:32:48;15.09;77.29
66835;HTU21D;53743;51.100;5.874;2023-05-29T01:33:54;15.06;77.08
66835;HTU21D;53743;51.100;5.874;2023-05-29T01:34:58;14.97;76.83
66835;HTU21D;53743;51.100;5.874;2023-05-29T01:36:00;14.98;76.86
66835;HTU21D;53743;51.100;5.874;2023-05-29T01:37:02;14.94;77.18
66835;HTU21D;53743;51.100;5.874;2023-05-29T01:38:04;14.89;77.12
66835;HTU21D;53743;51.100;5.874;2023-05-29T01:39:05;14.88;77.14
66835;HTU21D;53743;51.100;5.874;2023-05-29T01:40:09;14.88;77.66
66835;HTU21D;53743;51.100;5.874;2023-05-29T01:41:11;14.88;77.91
66835;HTU21D;53743;51.100;5.874;2023-05-29T01:42:15;14.93;77.72
66835;HTU21D;53743;51.100;5.874;2023-05-29T01:43:17;14.92;77.81
66835;HTU21D;53743;51.100;5.874;2023-05-29T01:44:20;14.88;78.11
66835;HTU21D;53743;51.100;5.874;2023-05-29T01:45:24;14.88;78.37
66835;HTU21D;53743;51.100;5.874;2023-05-29T01:46:27;14.86;78.12
66835;HTU21D;53743;51.100;5.874;2023-05-29T01:47:28;14.83;78.88
66835;HTU21D;53743;51.100;5.874;2023-05-29T01:48:30;14.82;79.81
66835;HTU21D;53743;51.100;5.874;2023-05-29T01:49:31;14.84;79.13
66835;HTU21D;53743;51.100;5.874;2023-05-29T01:50:35;14.82;78.64
66835;HTU21D;53743;51.100;5.874;2023-05-29T01:51:38;14.80;78.67
66835;HTU21D;53743;51.100;5.874;2023-05-29T01:52:41;14.78;78.34
66835;HTU21D;53743;51.100;5.874;2023-05-29T01:53:43;14.78;78.46
66835;HTU21D;53743;51.100;5.874;2023-05-29T01:54:46;14.79;78.37
66835;HTU21D;53743;51.100;5.874;2023-05-29T01:55:48;14.83;78.66
66835;HTU21D;53743;51.100;5.874;2023-05-29T01:56:51;14.85;78.30
66835;HTU21D;53743;51.100;5.874;2023-05-29T01:57:55;14.82;78.55
66835;HTU21D;53743;51.100;5.874;2023-05-29T01:58:59;14.83;79.18
66835;HTU21D;53743;51.100;5.874;2023-05-29T02:00:04;14.80;78.72
66835;HTU21D;53743;51.100;5.874;2023-05-29T02:01:15;14.78;79.48
66835;HTU21D;53743;51.100;5.874;2023-05-29T02:02:17;14.75;79.00
66835;HTU21D;53743;51.100;5.874;2023-05-29T02:03:18;14.74;78.95
66835;HTU21D;53743;51.100;5.874;2023-05-29T02:04:20;14.60;79.27
66835;HTU21D;53743;51.100;5.874;2023-05-29T02:05:21;14.59;79.57
66835;HTU21D;53743;51.100;5.874;2023-05-29T02:06:23;14.59;80.02
66835;HTU21D;53743;51.100;5.874;2023-05-29T02:07:24;14.53;79.72
66835;HTU21D;53743;51.100;5.874;2023-05-29T02:08:27;14.49;79.58
66835;HTU21D;53743;51.100;5.874;2023-05-29T02:09:28;14.45;79.72
66835;HTU21D;53743;51.100;5.874;2023-05-29T02:10:31;14.47;79.82
66835;HTU21D;53743;51.100;5.874;2023-05-29T02:11:32;14.40;80.18
66835;HTU21D;53743;51.100;5.874;2023-05-29T02:12:34;14.43;79.85
66835;HTU21D;53743;51.100;5.874;2023-05-29T02:13:37;14.39;79.56
66835;HTU21D;53743;51.100;5.874;2023-05-29T02:14:39;14.38;79.27
66835;HTU21D;53743;51.100;5.874;2023-05-29T02:15:41;14.34;79.55
66835;HTU21D;53743;51.100;5.874;2023-05-29T02:16:44;14.34;79.05
66835;HTU21D;53743;51.100;5.874;2023-05-29T02:17:45;14.35;78.92
66835;HTU21D;53743;51.100;5.874;2023-05-29T02:18:47;14.32;79.59
66835;HTU21D;53743;51.100;5.874;2023-05-29T02:19:48;14.29;79.08
66835;HTU21D;53743;51.100;5.874;2023-05-29T02:20:51;14.33;79.21
66835;HTU21D;53743;51.100;5.874;2023-05-29T02:21:55;14.25;78.95
66835;HTU21D;53743;51.100;5.874;2023-05-29T02:22:57;14.20;78.95
66835;HTU21D;53743;51.100;5.874;2023-05-29T02:23:59;14.18;79.14
66835;HTU21D;53743;51.100;5.874;2023-05-29T02:25:01;14.17;79.14
66835;HTU21D;53743;51.100;5.874;2023-05-29T02:26:02;14.11;79.25
66835;HTU21D;53743;51.100;5.874;2023-05-29T02:27:04;14.09;79.10
66835;HTU21D;53743;51.100;5.874;2023-05-29T02:28:05;14.08;79.01
66835;HTU21D;53743;51.100;5.874;2023-05-29T02:29:09;14.07;78.94
66835;HTU21D;53743;51.100;5.874;2023-05-29T02:30:11;14.04;78.92
66835;HTU21D;53743;51.100;5.874;2023-05-29T02:31:15;14.00;79.08
66835;HTU21D;53743;51.100;5.874;2023-05-29T02:32:16;13.96;79.95
66835;HTU21D;53743;51.100;5.874;2023-05-29T02:33:18;13.98;79.08
66835;HTU21D;53743;51.100;5.874;2023-05-29T02:34:19;13.99;78.65
66835;HTU21D;53743;51.100;5.874;2023-05-29T02:35:23;13.95;78.74
66835;HTU21D;53743;51.100;5.874;2023-05-29T02:36:24;13.90;79.94
66835;HTU21D;53743;51.100;5.874;2023-05-29T02:37:26;13.86;78.97
66835;HTU21D;53743;51.100;5.874;2023-05-29T02:38:27;13.89;78.93
66835;HTU21D;53743;51.100;5.874;2023-05-29T02:39:29;13.89;78.62
66835;HTU21D;53743;51.100;5.874;2023-05-29T02:40:30;13.81;78.78
66835;HTU21D;53743;51.100;5.874;2023-05-29T02:41:32;13.84;78.63
66835;HTU21D;53743;51.100;5.874;2023-05-29T02:42:33;13.81;78.44
66835;HTU21D;53743;51.100;5.874;2023-05-29T02:43:38;13.78;78.88
66835;HTU21D;53743;51.100;5.874;2023-05-29T02:44:40;13.77;78.53
66835;HTU21D;53743;51.100;5.874;2023-05-29T02:45:42;13.76;78.21
66835;HTU21D;53743;51.100;5.874;2023-05-29T02:46:43;13.77;78.05
66835;HTU21D;53743;51.100;5.874;2023-05-29T02:47:45;13.74;78.17
66835;HTU21D;53743;51.100;5.874;2023-05-29T02:48:46;13.77;78.14
66835;HTU21D;53743;51.100;5.874;2023-05-29T02:49:48;13.74;78.25
66835;HTU21D;53743;51.100;5.874;2023-05-29T02:50:51;13.74;77.91
66835;HTU21D;53743;51.100;5.874;2023-05-29T02:51:53;13.75;77.86
66835;HTU21D;53743;51.100;5.874;2023-05-29T02:52:57;13.69;77.82
66835;HTU21D;53743;51.100;5.874;2023-05-29T02:53:59;13.73;77.72
66835;HTU21D;53743;51.100;5.874;2023-05-29T02:55:00;13.70;77.53
66835;HTU21D;53743;51.100;5.874;2023-05-29T02:56:03;13.63;77.79
66835;HTU21D;53743;51.100;5.874;2023-05-29T02:57:04;13.60;78.14
66835;HTU21D;53743;51.100;5.874;2023-05-29T02:58:06;13.61;77.69
66835;HTU21D;53743;51.100;5.874;2023-05-29T02:59:08;13.59;77.72
66835;HTU21D;53743;51.100;5.874;2023-05-29T03:00:12;13.55;77.69
66835;HTU21D;53743;51.100;5.874;2023-05-29T03:01:14;13.54;77.95
66835;HTU21D;53743;51.100;5.874;2023-05-29T03:02:16;13.54;78.09
66835;HTU21D;53743;51.100;5.874;2023-05-29T03:03:17;13.53;77.69
66835;HTU21D;53743;51.100;5.874;2023-05-29T03:04:19;13.50;78.01
66835;HTU21D;53743;51.100;5.874;2023-05-29T03:05:20;13.52;77.63
66835;HTU21D;53743;51.100;5.874;2023-05-29T03:06:22;13.49;77.71
66835;HTU21D;53743;51.100;5.874;2023-05-29T03:07:23;13.50;77.83
66835;HTU21D;53743;51.100;5.874;2023-05-29T03:08:26;13.50;77.64
66835;HTU21D;53743;51.100;5.874;2023-05-29T03:09:28;13.46;78.05
66835;HTU21D;53743;51.100;5.874;2023-05-29T03:10:31;13.43;77.94
66835;HTU21D;53743;51.100;5.874;2023-05-29T03:11:33;13.41;77.98
66835;HTU21D;53743;51.100;5.874;2023-05-29T03:13:39;13.36;78.00
66835;HTU21D;53743;51.100;5.874;2023-05-29T03:14:43;13.36;77.69
66835;HTU21D;53743;51.100;5.874;2023-05-29T03:15:48;13.38;77.53
66835;HTU21D;53743;51.100;5.874;2023-05-29T03:16:51;13.39;77.50
66835;HTU21D;53743;51.100;5.874;2023-05-29T03:17:53;13.40;77.79
66835;HTU21D;53743;51.100;5.874;2023-05-29T03:19:00;13.40;77.37
66835;HTU21D;53743;51.100;5.874;2023-05-29T03:20:01;13.38;77.38
66835;HTU21D;53743;51.100;5.874;2023-05-29T03:21:06;13.39;77.42
66835;HTU21D;53743;51.100;5.874;2023-05-29T03:22:08;13.36;77.43
66835;HTU21D;53743;51.100;5.874;2023-05-29T03:23:11;13.39;77.23
66835;HTU21D;53743;51.100;5.874;2023-05-29T03:24:12;13.38;77.88
66835;HTU21D;53743;51.100;5.874;2023-05-29T03:25:16;13.37;77.26
66835;HTU21D;53743;51.100;5.874;2023-05-29T03:26:18;13.38;77.15
66835;HTU21D;53743;51.100;5.874;2023-05-29T03:27:22;13.37;77.07
66835;HTU21D;53743;51.100;5.874;2023-05-29T03:28:32;13.37;77.05
66835;HTU21D;53743;51.100;5.874;2023-05-29T03:29:37;13.39;76.97
66835;HTU21D;53743;51.100;5.874;2023-05-29T03:30:38;13.39;77.00
66835;HTU21D;53743;51.100;5.874;2023-05-29T03:31:41;13.40;76.98
66835;HTU21D;53743;51.100;5.874;2023-05-29T03:32:42;13.38;76.97
66835;HTU21D;53743;51.100;5.874;2023-05-29T03:33:45;13.39;77.14
66835;HTU21D;53743;51.100;5.874;2023-05-29T03:34:56;13.39;77.07
66835;HTU21D;53743;51.100;5.874;2023-05-29T03:35:58;13.37;76.94
66835;HTU21D;53743;51.100;5.874;2023-05-29T03:37:00;13.36;76.92
66835;HTU21D;53743;51.100;5.874;2023-05-29T03:38:03;13.36;77.09
66835;HTU21D;53743;51.100;5.874;2023-05-29T03:39:04;13.36;76.71
66835;HTU21D;53743;51.100;5.874;2023-05-29T03:40:07;13.36;76.67
66835;HTU21D;53743;51.100;5.874;2023-05-29T03:41:10;13.36;76.71
66835;HTU21D;53743;51.100;5.874;2023-05-29T03:42:13;13.37;76.63
66835;HTU21D;53743;51.100;5.874;2023-05-29T03:43:14;13.38;76.62
66835;HTU21D;53743;51.100;5.874;2023-05-29T03:44:16;13.36;76.52
66835;HTU21D;53743;51.100;5.874;2023-05-29T03:45:18;13.37;76.47
66835;HTU21D;53743;51.100;5.874;2023-05-29T03:46:20;13.38;76.40
66835;HTU21D;53743;51.100;5.874;2023-05-29T03:47:22;13.40;76.15
66835;HTU21D;53743;51.100;5.874;2023-05-29T03:48:26;13.39;75.98
66835;HTU21D;53743;51.100;5.874;2023-05-29T03:49:26;13.36;75.86
66835;HTU21D;53743;51.100;5.874;2023-05-29T03:50:28;13.35;75.78
66835;HTU21D;53743;51.100;5.874;2023-05-29T03:51:30;13.36;75.55
66835;HTU21D;53743;51.100;5.874;2023-05-29T03:52:32;13.36;75.50
66835;HTU21D;53743;51.100;5.874;2023-05-29T03:53:34;13.36;75.47
66835;HTU21D;53743;51.100;5.874;2023-05-29T03:54:35;13.31;75.45
66835;HTU21D;53743;51.100;5.874;2023-05-29T03:55:37;13.27;75.60
66835;HTU21D;53743;51.100;5.874;2023-05-29T03:56:42;13.29;75.40
66835;HTU21D;53743;51.100;5.874;2023-05-29T03:57:46;13.31;75.28
66835;HTU21D;53743;51.100;5.874;2023-05-29T03:58:47;13.31;75.33
66835;HTU21D;53743;51.100;5.874;2023-05-29T03:59:49;13.33;75.12
66835;HTU21D;53743;51.100;5.874;2023-05-29T04:00:51;13.32;75.03
66835;HTU21D;53743;51.100;5.874;2023-05-29T04:01:55;13.25;75.31
66835;HTU21D;53743;51.100;5.874;2023-05-29T04:02:57;13.29;74.91
66835;HTU21D;53743;51.100;5.874;2023-05-29T04:03:59;13.30;74.81
66835;HTU21D;53743;51.100;5.874;2023-05-29T04:05:00;13.27;74.96
66835;HTU21D;53743;51.100;5.874;2023-05-29T04:06:03;13.32;74.66
66835;HTU21D;53743;51.100;5.874;2023-05-29T04:07:04;13.31;74.53
66835;HTU21D;53743;51.100;5.874;2023-05-29T04:08:07;13.31;74.57
66835;HTU21D;53743;51.100;5.874;2023-05-29T04:09:09;13.32;74.42
66835;HTU21D;53743;51.100;5.874;2023-05-29T04:10:11;13.31;74.54
66835;HTU21D;53743;51.100;5.874;2023-05-29T04:11:13;13.32;74.54
66835;HTU21D;53743;51.100;5.874;2023-05-29T04:12:15;13.34;74.35
66835;HTU21D;53743;51.100;5.874;2023-05-29T04:13:17;13.38;74.34
66835;HTU21D;53743;51.100;5.874;2023-05-29T04:14:19;13.37;74.15
66835;HTU21D;53743;51.100;5.874;2023-05-29T04:15:21;13.38;74.04
66835;HTU21D;53743;51.100;5.874;2023-05-29T04:16:22;13.39;74.06
66835;HTU21D;53743;51.100;5.874;2023-05-29T04:17:24;13.44;73.90
66835;HTU21D;53743;51.100;5.874;2023-05-29T04:18:26;13.41;73.94
66835;HTU21D;53743;51.100;5.874;2023-05-29T04:19:29;13.43;73.85
66835;HTU21D;53743;51.100;5.874;2023-05-29T04:20:30;13.43;73.86
66835;HTU21D;53743;51.100;5.874;2023-05-29T04:21:32;13.44;73.80
66835;HTU21D;53743;51.100;5.874;2023-05-29T04:22:35;13.47;73.68
66835;HTU21D;53743;51.100;5.874;2023-05-29T04:23:37;13.49;73.61
66835;HTU21D;53743;51.100;5.874;2023-05-29T04:24:38;13.54;73.38
66835;HTU21D;53743;51.100;5.874;2023-05-29T04:25:42;13.58;73.19
66835;HTU21D;53743;51.100;5.874;2023-05-29T04:26:44;13.59;73.06
66835;HTU21D;53743;51.100;5.874;2023-05-29T04:27:46;13.56;72.98
66835;HTU21D;53743;51.100;5.874;2023-05-29T04:28:50;13.59;72.85
66835;HTU21D;53743;51.100;5.874;2023-05-29T04:29:58;13.59;72.83
66835;HTU21D;53743;51.100;5.874;2023-05-29T04:31:05;13.60;72.63
66835;HTU21D;53743;51.100;5.874;2023-05-29T04:32:08;13.63;72.64
66835;HTU21D;53743;51.100;5.874;2023-05-29T04:33:10;13.63;72.43
66835;HTU21D;53743;51.100;5.874;2023-05-29T04:34:17;13.66;72.19
66835;HTU21D;53743;51.100;5.874;2023-05-29T04:35:19;13.68;72.06
66835;HTU21D;53743;51.100;5.874;2023-05-29T04:36:31;13.74;71.76
66835;HTU21D;53743;51.100;5.874;2023-05-29T04:37:42;13.69;71.85
66835;HTU21D;53743;51.100;5.874;2023-05-29T04:38:44;13.69;71.80
66835;HTU21D;53743;51.100;5.874;2023-05-29T04:39:48;13.66;71.93
66835;HTU21D;53743;51.100;5.874;2023-05-29T04:40:57;13.65;72.01
66835;HTU21D;53743;51.100;5.874;2023-05-29T04:41:59;13.64;72.04
66835;HTU21D;53743;51.100;5.874;2023-05-29T04:43:02;13.65;72.02
66835;HTU21D;53743;51.100;5.874;2023-05-29T04:44:17;13.67;71.97
66835;HTU21D;53743;51.100;5.874;2023-05-29T04:45:23;13.69;72.09
66835;HTU21D;53743;51.100;5.874;2023-05-29T04:46:25;13.74;72.06
66835;HTU21D;53743;51.100;5.874;2023-05-29T04:47:28;13.78;72.00
66835;HTU21D;53743;51.100;5.874;2023-05-29T04:48:29;13.88;71.62
66835;HTU21D;53743;51.100;5.874;2023-05-29T04:49:33;13.92;71.39
66835;HTU21D;53743;51.100;5.874;2023-05-29T04:50:34;13.95;71.17
66835;HTU21D;53743;51.100;5.874;2023-05-29T04:51:37;13.95;70.92
66835;HTU21D;53743;51.100;5.874;2023-05-29T04:52:41;13.92;71.17
66835;HTU21D;53743;51.100;5.874;2023-05-29T04:53:45;13.95;71.06
66835;HTU21D;53743;51.100;5.874;2023-05-29T04:54:48;13.99;71.00
66835;HTU21D;53743;51.100;5.874;2023-05-29T04:55:50;14.04;71.13
66835;HTU21D;53743;51.100;5.874;2023-05-29T04:56:52;14.01;70.93
66835;HTU21D;53743;51.100;5.874;2023-05-29T04:57:57;14.06;70.56
66835;HTU21D;53743;51.100;5.874;2023-05-29T04:59:01;14.10;70.48
66835;HTU21D;53743;51.100;5.874;2023-05-29T05:00:04;14.17;70.53
66835;HTU21D;53743;51.100;5.874;2023-05-29T05:01:11;14.25;70.18
66835;HTU21D;53743;51.100;5.874;2023-05-29T05:02:14;14.27;70.04
66835;HTU21D;53743;51.100;5.874;2023-05-29T05:03:15;14.32;69.90
66835;HTU21D;53743;51.100;5.874;2023-05-29T05:04:18;14.36;69.61
66835;HTU21D;53743;51.100;5.874;2023-05-29T05:05:21;14.38;69.41
66835;HTU21D;53743;51.100;5.874;2023-05-29T05:06:28;14.39;69.26
66835;HTU21D;53743;51.100;5.874;2023-05-29T05:07:29;14.42;69.13
66835;HTU21D;53743;51.100;5.874;2023-05-29T05:08:31;14.41;69.21
66835;HTU21D;53743;51.100;5.874;2023-05-29T05:09:33;14.47;69.22
66835;HTU21D;53743;51.100;5.874;2023-05-29T05:10:37;14.54;69.51
66835;HTU21D;53743;51.100;5.874;2023-05-29T05:11:39;14.78;68.78
66835;HTU21D;53743;51.100;5.874;2023-05-29T05:12:41;15.23;68.40
66835;HTU21D;53743;51.100;5.874;2023-05-29T05:13:44;15.76;66.05
66835;HTU21D;53743;51.100;5.874;2023-05-29T05:14:46;16.33;62.78
66835;HTU21D;53743;51.100;5.874;2023-05-29T05:15:48;16.90;59.77
66835;HTU21D;53743;51.100;5.874;2023-05-29T05:16:49;17.46;60.65
66835;HTU21D;53743;51.100;5.874;2023-05-29T05:17:51;18.00;58.94
66835;HTU21D;53743;51.100;5.874;2023-05-29T05:18:52;18.53;56.77
66835;HTU21D;53743;51.100;5.874;2023-05-29T05:19:54;19.03;55.33
66835;HTU21D;53743;51.100;5.874;2023-05-29T05:20:58;19.53;53.52
66835;HTU21D;53743;51.100;5.874;2023-05-29T05:22:00;19.83;49.31
66835;HTU21D;53743;51.100;5.874;2023-05-29T05:23:01;20.05;50.41
66835;HTU21D;53743;51.100;5.874;2023-05-29T05:24:03;20.25;49.36
66835;HTU21D;53743;51.100;5.874;2023-05-29T05:25:05;20.42;49.44
66835;HTU21D;53743;51.100;5.874;2023-05-29T05:26:08;20.62;49.40
66835;HTU21D;53743;51.100;5.874;2023-05-29T05:27:10;20.98;47.79
66835;HTU21D;53743;51.100;5.874;2023-05-29T05:28:12;21.23;46.27
66835;HTU21D;53743;51.100;5.874;2023-05-29T05:29:14;21.43;45.87
66835;HTU21D;53743;51.100;5.874;2023-05-29T05:30:16;21.73;45.28
66835;HTU21D;53743;51.100;5.874;2023-05-29T05:31:17;22.06;41.71
66835;HTU21D;53743;51.100;5.874;2023-05-29T05:32:20;22.27;43.26
66835;HTU21D;53743;51.100;5.874;2023-05-29T05:33:28;22.53;42.26
66835;HTU21D;53743;51.100;5.874;2023-05-29T05:34:29;22.73;41.55
66835;HTU21D;53743;51.100;5.874;2023-05-29T05:35:31;23.00;40.39
66835;HTU21D;53743;51.100;5.874;2023-05-29T05:36:35;23.22;39.86
66835;HTU21D;53743;51.100;5.874;2023-05-29T05:37:43;23.46;37.39
66835;HTU21D;53743;51.100;5.874;2023-05-29T05:38:46;23.65;38.20
66835;HTU21D;53743;51.100;5.874;2023-05-29T05:39:47;23.68;36.79
66835;HTU21D;53743;51.100;5.874;2023-05-29T05:40:49;23.60;37.46
66835;HTU21D;53743;51.100;5.874;2023-05-29T05:41:57;23.58;36.72
66835;HTU21D;53743;51.100;5.874;2023-05-29T05:43:14;23.52;35.57
66835;HTU21D;53743;51.100;5.874;2023-05-29T05:44:32;23.21;36.34
66835;HTU21D;53743;51.100;5.874;2023-05-29T05:45:40;23.06;38.35
66835;HTU21D;53743;51.100;5.874;2023-05-29T05:46:43;23.17;36.35
66835;HTU21D;53743;51.100;5.874;2023-05-29T05:47:46;23.29;37.87
66835;HTU21D;53743;51.100;5.874;2023-05-29T05:48:48;23.46;36.32
66835;HTU21D;53743;51.100;5.874;2023-05-29T05:49:51;23.75;36.88
66835;HTU21D;53743;51.100;5.874;2023-05-29T05:50:52;23.92;33.78
66835;HTU21D;53743;51.100;5.874;2023-05-29T05:51:55;24.01;34.67
66835;HTU21D;53743;51.100;5.874;2023-05-29T05:52:56;24.00;35.65
66835;HTU21D;53743;51.100;5.874;2023-05-29T05:53:58;24.17;34.89
66835;HTU21D;53743;51.100;5.874;2023-05-29T05:55:01;24.28;34.92
66835;HTU21D;53743;51.100;5.874;2023-05-29T05:56:04;24.30;35.41
66835;HTU21D;53743;51.100;5.874;2023-05-29T05:57:05;24.42;34.57
66835;HTU21D;53743;51.100;5.874;2023-05-29T05:58:09;24.56;34.28
66835;HTU21D;53743;51.100;5.874;2023-05-29T05:59:11;24.60;34.41
66835;HTU21D;53743;51.100;5.874;2023-05-29T06:00:14;24.76;33.84
66835;HTU21D;53743;51.100;5.874;2023-05-29T06:01:18;25.02;33.70
66835;HTU21D;53743;51.100;5.874;2023-05-29T06:02:20;25.05;30.78
66835;HTU21D;53743;51.100;5.874;2023-05-29T06:03:22;25.07;31.89
66835;HTU21D;53743;51.100;5.874;2023-05-29T06:04:29;24.87;32.08
66835;HTU21D;53743;51.100;5.874;2023-05-29T06:05:32;24.50;33.29
66835;HTU21D;53743;51.100;5.874;2023-05-29T06:06:36;24.43;32.35
66835;HTU21D;53743;51.100;5.874;2023-05-29T06:07:40;24.55;32.70
66835;HTU21D;53743;51.100;5.874;2023-05-29T06:08:42;24.61;33.64
66835;HTU21D;53743;51.100;5.874;2023-05-29T06:09:45;24.69;33.41
66835;HTU21D;53743;51.100;5.874;2023-05-29T06:10:46;24.95;33.63
66835;HTU21D;53743;51.100;5.874;2023-05-29T06:11:48;25.20;33.24
66835;HTU21D;53743;51.100;5.874;2023-05-29T06:12:50;25.50;31.48
66835;HTU21D;53743;51.100;5.874;2023-05-29T06:13:58;25.69;31.28
66835;HTU21D;53743;51.100;5.874;2023-05-29T06:15:03;25.72;30.79
66835;HTU21D;53743;51.100;5.874;2023-05-29T06:16:07;25.84;31.46
66835;HTU21D;53743;51.100;5.874;2023-05-29T06:17:09;26.09;29.34
66835;HTU21D;53743;51.100;5.874;2023-05-29T06:18:12;26.33;29.80
66835;HTU21D;53743;51.100;5.874;2023-05-29T06:19:13;26.15;29.45
66835;HTU21D;53743;51.100;5.874;2023-05-29T06:20:28;25.74;30.10
66835;HTU21D;53743;51.100;5.874;2023-05-29T06:21:29;25.72;30.99
66835;HTU21D;53743;51.100;5.874;2023-05-29T06:22:31;25.84;31.32
66835;HTU21D;53743;51.100;5.874;2023-05-29T06:23:33;26.07;31.07
66835;HTU21D;53743;51.100;5.874;2023-05-29T06:24:36;26.33;29.17
66835;HTU21D;53743;51.100;5.874;2023-05-29T06:25:37;26.05;28.82
66835;HTU21D;53743;51.100;5.874;2023-05-29T06:26:40;25.34;29.79
66835;HTU21D;53743;51.100;5.874;2023-05-29T06:27:44;24.76;30.95
66835;HTU21D;53743;51.100;5.874;2023-05-29T06:28:46;24.54;32.03
66835;HTU21D;53743;51.100;5.874;2023-05-29T06:29:48;24.44;32.64
66835;HTU21D;53743;51.100;5.874;2023-05-29T06:30:49;24.55;32.89
66835;HTU21D;53743;51.100;5.874;2023-05-29T06:31:52;24.84;32.52
66835;HTU21D;53743;51.100;5.874;2023-05-29T06:32:54;25.14;32.31
66835;HTU21D;53743;51.100;5.874;2023-05-29T06:34:01;25.50;30.98
66835;HTU21D;53743;51.100;5.874;2023-05-29T06:35:04;25.87;30.07
66835;HTU21D;53743;51.100;5.874;2023-05-29T06:36:07;26.23;30.00